Time;durP1;ratioP1;P1;durP2;ratioP2;P2;SDS_P1;SDS_P2;PMS_P1;PMS_P2;Temp;Humidity;BMP_temperature;BMP_pressure;BME280_temperature;BME280_humidity;BME280_pressure;Samples;Min_cycle;Max_cycle;Signal;HPM_P1;HPM_P2
2023/07/14 00:01:45;;;;;;;6.60;5.45;;;;;;;15.18;100.00;100532.47;5019536;28;20470;-80
2023/07/14 00:04:12;;;;;;;6.05;5.40;;;;;;;15.18;100.00;100527.50;5036038;28;20039;-81
2023/07/14 00:06:40;;;;;;;6.63;5.28;;;;;;;15.17;100.00;100539.53;5003171;28;20056;-80
2023/07/14 00:09:25;;;;;;;8.52;5.72;;;;;;;15.16;100.00;100538.78;5016108;28;20073;-79
2023/07/14 00:11:51;;;;;;;6.55;5.00;;;;;;;15.11;100.00;100542.44;5032742;28;20099;-80
2023/07/14 00:14:18;;;;;;;7.32;5.07;;;;;;;15.08;100.00;100540.56;5033027;28;20423;-80
2023/07/14 00:16:44;;;;;;;5.97;4.88;;;;;;;15.02;100.00;100547.63;5032951;28;20467;-80
2023/07/14 00:19:15;;;;;;;6.05;5.45;;;;;;;15.00;100.00;100559.66;5049415;28;20200;-79
2023/07/14 00:21:41;;;;;;;9.07;5.85;;;;;;;14.97;100.00;100563.56;5034236;28;20033;-81
2023/07/14 00:24:19;;;;;;;11.00;5.22;;;;;;;14.97;100.00;100560.69;5032714;28;20099;-79
2023/07/14 00:26:47;;;;;;;9.02;5.75;;;;;;;14.97;100.00;100554.91;5032825;28;20025;-80
2023/07/14 00:29:26;;;;;;;7.75;5.95;;;;;;;14.95;100.00;100557.53;5032308;28;20048;-79
2023/07/14 00:31:52;;;;;;;9.45;5.60;;;;;;;14.93;100.00;100568.78;5032162;28;20430;-79
2023/07/14 00:34:17;;;;;;;7.72;6.63;;;;;;;14.95;100.00;100565.38;5033677;28;20202;-79
2023/07/14 00:36:43;;;;;;;11.68;6.72;;;;;;;14.92;100.00;100558.59;5034666;28;20401;-80
2023/07/14 00:39:09;;;;;;;7.70;5.95;;;;;;;14.94;100.00;100555.97;5037743;28;20445;-80
2023/07/14 00:41:35;;;;;;;11.57;6.75;;;;;;;14.94;100.00;100558.84;5037581;28;20029;-80
2023/07/14 00:44:01;;;;;;;10.15;6.40;;;;;;;14.93;100.00;100563.00;5036155;28;20037;-78
2023/07/14 00:46:33;;;;;;;10.40;6.32;;;;;;;14.90;100.00;100548.88;5036111;28;20029;-80
2023/07/14 00:49:21;;;;;;;11.45;7.43;;;;;;;14.93;100.00;100557.25;5036355;28;20073;-79
2023/07/14 00:51:47;;;;;;;10.57;6.45;;;;;;;14.88;100.00;100557.22;5037328;28;20112;-80
2023/07/14 00:54:26;;;;;;;7.57;6.03;;;;;;;14.88;100.00;100560.13;5035863;28;20126;-80
2023/07/14 00:56:53;;;;;;;9.77;6.43;;;;;;;14.83;100.00;100561.66;5037408;28;20029;-80
2023/07/14 00:59:21;;;;;;;10.27;5.82;;;;;;;14.80;100.00;100566.38;5036197;28;20122;-79
2023/07/14 01:02:19;;;;;;;13.18;6.15;;;;;;;14.77;100.00;100564.50;5035953;28;20049;-78
2023/07/14 01:04:54;;;;;;;12.60;7.75;;;;;;;14.71;100.00;100557.97;5019037;28;20063;-80
2023/07/14 01:07:40;;;;;;;10.30;6.55;;;;;;;14.72;100.00;100558.75;5034817;28;20037;-79
2023/07/14 01:10:08;;;;;;;9.63;6.50;;;;;;;14.66;100.00;100560.81;4998302;28;20133;-80
2023/07/14 01:12:37;;;;;;;11.77;7.75;;;;;;;14.62;100.00;100577.53;5014986;28;20021;-79
2023/07/14 01:15:04;;;;;;;12.60;6.55;;;;;;;14.59;100.00;100569.91;5016019;28;20026;-81
2023/07/14 01:17:30;;;;;;;9.55;6.60;;;;;;;14.55;100.00;100572.22;5016865;28;20097;-79
2023/07/14 01:20:00;;;;;;;14.75;8.70;;;;;;;14.55;100.00;100575.88;5015838;28;20410;-80
2023/07/14 01:23:02;;;;;;;17.33;6.90;;;;;;;14.54;100.00;100573.53;4983335;28;20056;-79
2023/07/14 01:25:33;;;;;;;12.68;7.07;;;;;;;14.51;100.00;100580.31;5016757;28;20523;-78
2023/07/14 01:28:03;;;;;;;13.65;7.28;;;;;;;14.50;100.00;100576.66;5015844;28;20037;-77
2023/07/14 01:30:29;;;;;;;12.80;6.97;;;;;;;14.48;100.00;100587.84;5014643;28;20541;-80
2023/07/14 01:32:57;;;;;;;13.15;7.07;;;;;;;14.47;100.00;100591.28;5031085;28;20406;-79
2023/07/14 01:35:51;;;;;;;9.38;6.75;;;;;;;14.48;100.00;100595.72;5015892;28;20026;-79
2023/07/14 01:38:35;;;;;;;11.52;7.18;;;;;;;14.47;100.00;100597.03;5014667;28;20026;-79
2023/07/14 01:41:03;;;;;;;17.35;7.30;;;;;;;14.39;100.00;100585.97;5014201;28;20038;-79
2023/07/14 01:43:30;;;;;;;19.65;8.20;;;;;;;14.43;100.00;100600.91;5015588;28;20076;-80
2023/07/14 01:45:58;;;;;;;17.00;8.85;;;;;;;14.42;100.00;100604.31;4999197;28;20112;-80
2023/07/14 01:48:32;;;;;;;16.60;7.72;;;;;;;14.41;100.00;100602.72;5014166;28;20464;-78
2023/07/14 01:51:09;;;;;;;13.13;8.32;;;;;;;14.38;100.00;100603.75;5015148;28;20022;-81
2023/07/14 01:53:43;;;;;;;13.30;7.43;;;;;;;14.33;100.00;100605.28;5015002;28;20424;-78
2023/07/14 01:56:11;;;;;;;11.65;8.07;;;;;;;14.31;100.00;100607.91;4999922;28;20084;-79
2023/07/14 01:59:08;;;;;;;13.70;8.32;;;;;;;14.34;100.00;100620.44;5015349;28;20383;-79
2023/07/14 02:01:35;;;;;;;19.15;8.80;;;;;;;14.30;100.00;100620.69;5015035;28;20100;-81
2023/07/14 02:04:07;;;;;;;16.75;7.50;;;;;;;14.33;100.00;100625.41;4982713;28;20040;-78
2023/07/14 02:06:33;;;;;;;12.18;7.30;;;;;;;14.32;100.00;100620.97;4998834;28;20028;-79
2023/07/14 02:09:01;;;;;;;15.32;7.38;;;;;;;14.30;100.00;100622.78;5022531;28;20457;-80
2023/07/14 02:11:27;;;;;;;9.45;7.80;;;;;;;14.29;100.00;100626.94;5035891;28;20032;-80
2023/07/14 02:13:57;;;;;;;15.75;8.05;;;;;;;14.24;100.00;100627.69;5018163;28;20033;-80
2023/07/14 02:16:23;;;;;;;13.52;8.07;;;;;;;14.23;100.00;100629.00;5036038;28;20025;-79
2023/07/14 02:18:49;;;;;;;14.15;7.68;;;;;;;14.22;100.00;100627.41;5018142;28;20044;-79
2023/07/14 02:21:37;;;;;;;21.88;9.68;;;;;;;14.22;100.00;100636.03;5018200;28;20033;-80
2023/07/14 02:24:04;;;;;;;15.13;8.13;;;;;;;14.17;100.00;100633.91;5035432;28;20113;-81
2023/07/14 02:26:35;;;;;;;12.65;7.30;;;;;;;14.16;100.00;100632.34;5034554;28;20034;-80
2023/07/14 02:29:10;;;;;;;15.95;7.28;;;;;;;14.15;100.00;100636.50;5034847;28;20060;-79
2023/07/14 02:31:38;;;;;;;17.48;7.80;;;;;;;14.11;100.00;100642.47;5035825;28;20413;-78
2023/07/14 02:34:05;;;;;;;16.83;7.30;;;;;;;14.11;100.00;100656.06;5034308;28;20176;-79
2023/07/14 02:36:55;;;;;;;16.90;7.20;;;;;;;14.07;100.00;100647.69;5034075;28;20041;-79
2023/07/14 02:39:21;;;;;;;17.20;8.15;;;;;;;14.06;100.00;100651.84;5035594;28;20112;-79
2023/07/14 02:41:49;;;;;;;11.63;7.18;;;;;;;14.06;100.00;100653.94;5035376;28;20044;-78
2023/07/14 02:44:17;;;;;;;16.10;7.57;;;;;;;14.04;100.00;100660.19;5001317;28;20037;-79
2023/07/14 02:46:54;;;;;;;20.95;8.13;;;;;;;14.04;100.00;100662.25;5033917;28;20056;-80
2023/07/14 02:49:20;;;;;;;17.10;6.90;;;;;;;14.01;100.00;100651.78;5035455;28;20036;-78
2023/07/14 02:51:46;;;;;;;11.18;6.63;;;;;;;14.01;100.00;100669.81;5035171;28;20386;-79
2023/07/14 02:54:14;;;;;;;14.88;7.43;;;;;;;13.96;100.00;100659.06;5034905;28;20026;-78
2023/07/14 02:56:39;;;;;;;13.93;7.28;;;;;;;14.00;100.00;100665.38;5035181;28;20029;-79
2023/07/14 02:59:09;;;;;;;16.13;7.13;;;;;;;14.01;100.00;100669.03;5034516;28;20065;-79
2023/07/14 03:01:35;;;;;;;12.00;6.82;;;;;;;14.01;100.00;100678.44;5034067;28;20025;-80
2023/07/14 03:04:01;;;;;;;17.27;7.53;;;;;;;14.03;100.00;100673.00;5017107;28;20029;-79
2023/07/14 03:06:27;;;;;;;19.23;7.80;;;;;;;13.98;100.00;100667.97;5034950;28;20060;-78
2023/07/14 03:08:53;;;;;;;12.57;7.43;;;;;;;13.97;100.00;100678.69;5010881;28;20100;-80
2023/07/14 03:11:18;;;;;;;11.40;7.63;;;;;;;14.00;100.00;100685.47;5015188;28;20022;-79
2023/07/14 03:13:46;;;;;;;17.55;7.50;;;;;;;13.97;100.00;100675.00;5014795;28;20060;-79
2023/07/14 03:16:12;;;;;;;15.18;6.90;;;;;;;13.96;100.00;100682.84;5014030;28;20029;-78
2023/07/14 03:18:38;;;;;;;22.08;7.93;;;;;;;13.98;100.00;100691.72;5005944;28;20029;-79
2023/07/14 03:21:04;;;;;;;13.57;6.82;;;;;;;14.03;100.00;100686.56;5030111;28;20137;-79
2023/07/14 03:23:30;;;;;;;15.45;6.85;;;;;;;14.03;100.00;100681.63;5015135;28;20100;-78
2023/07/14 03:26:01;;;;;;;14.82;6.63;;;;;;;14.16;100.00;100707.84;5014642;28;20499;-79
2023/07/14 03:28:29;;;;;;;15.70;7.13;;;;;;;14.19;100.00;100694.53;5014577;28;20018;-80
2023/07/14 03:30:55;;;;;;;18.15;6.85;;;;;;;14.29;100.00;100696.72;5013166;28;20487;-78
2023/07/14 03:33:22;;;;;;;13.55;6.78;;;;;;;14.33;100.00;100700.16;5013736;28;20026;-79
2023/07/14 03:35:48;;;;;;;11.63;6.45;;;;;;;14.38;100.00;100704.38;5014844;28;20034;-79
2023/07/14 03:38:14;;;;;;;17.52;7.15;;;;;;;14.45;100.00;100706.00;5029939;28;20030;-80
2023/07/14 03:40:39;;;;;;;15.05;6.85;;;;;;;14.42;100.00;100690.56;5013531;28;20034;-78
2023/07/14 03:43:05;;;;;;;18.23;6.43;;;;;;;14.60;100.00;100703.81;5014761;28;20025;-80
2023/07/14 03:45:33;;;;;;;18.52;6.30;;;;;;;14.73;100.00;100707.03;5014902;28;20053;-79
2023/07/14 03:48:00;;;;;;;16.92;6.35;;;;;;;14.83;100.00;100705.53;5013251;28;20034;-79
2023/07/14 03:50:26;;;;;;;18.65;6.63;;;;;;;14.95;100.00;100712.16;5013479;28;20030;-79
2023/07/14 03:52:52;;;;;;;15.82;5.45;;;;;;;14.99;100.00;100704.06;5013998;28;20026;-80
2023/07/14 03:55:19;;;;;;;15.27;5.57;;;;;;;15.04;100.00;100721.38;5031864;28;20030;-78
2023/07/14 03:57:53;;;;;;;17.30;5.22;;;;;;;15.14;100.00;100714.09;5034133;28;20014;-81
2023/07/14 04:00:18;;;;;;;18.60;5.65;;;;;;;15.18;100.00;100720.41;5030272;28;20040;-80
2023/07/14 04:02:45;;;;;;;14.13;6.38;;;;;;;15.22;100.00;100712.31;5017233;28;20021;-81
2023/07/14 04:05:12;;;;;;;13.60;5.85;;;;;;;15.32;100.00;100712.88;5013239;28;20506;-81
2023/07/14 04:07:48;;;;;;;13.93;5.25;;;;;;;15.40;100.00;100718.94;5013374;28;20025;-80
2023/07/14 04:10:22;;;;;;;15.82;5.80;;;;;;;15.48;100.00;100717.13;5030020;28;20111;-79
2023/07/14 04:12:56;;;;;;;15.05;5.65;;;;;;;15.58;100.00;100719.28;5032866;28;20022;-78
2023/07/14 04:15:21;;;;;;;16.25;5.57;;;;;;;15.61;100.00;100711.75;5033765;28;20036;-79
2023/07/14 04:17:47;;;;;;;16.63;5.55;;;;;;;15.72;100.00;100723.28;5033561;28;20112;-79
2023/07/14 04:20:13;;;;;;;12.75;5.65;;;;;;;15.78;100.00;100720.44;5033366;28;20037;-79
2023/07/14 04:22:39;;;;;;;14.60;5.63;;;;;;;15.84;100.00;100718.34;5033989;28;20041;-79
2023/07/14 04:25:05;;;;;;;15.88;5.50;;;;;;;15.92;100.00;100719.41;5033632;28;20069;-79
2023/07/14 04:27:33;;;;;;;16.10;5.40;;;;;;;16.03;100.00;100723.13;5015712;28;20458;-80
2023/07/14 04:30:00;;;;;;;15.93;5.72;;;;;;;16.08;100.00;100710.81;5033805;28;20021;-80
2023/07/14 04:32:28;;;;;;;13.43;6.50;;;;;;;16.16;100.00;100719.72;5033593;28;20052;-78
2023/07/14 04:34:55;;;;;;;24.48;6.20;;;;;;;16.28;100.00;100727.09;5032318;28;20025;-78
2023/07/14 04:37:21;;;;;;;21.83;5.40;;;;;;;16.42;100.00;100723.16;5031798;28;20120;-79
2023/07/14 04:39:47;;;;;;;14.50;5.13;;;;;;;16.56;100.00;100715.59;5033538;28;20037;-80
2023/07/14 04:42:13;;;;;;;14.00;5.30;;;;;;;16.67;100.00;100714.78;5032261;28;20025;-79
2023/07/14 04:44:40;;;;;;;10.93;5.50;;;;;;;16.77;100.00;100719.78;5032031;28;20038;-80
2023/07/14 04:47:06;;;;;;;10.35;5.25;;;;;;;16.81;100.00;100714.53;5015731;28;20037;-80
2023/07/14 04:49:34;;;;;;;17.35;5.63;;;;;;;16.93;100.00;100724.75;5033295;28;20052;-78
2023/07/14 04:52:01;;;;;;;19.52;5.68;;;;;;;17.08;100.00;100721.56;5033437;28;20037;-80
2023/07/14 04:54:27;;;;;;;14.77;4.93;;;;;;;17.22;100.00;100720.47;5033507;28;20036;-78
2023/07/14 04:56:54;;;;;;;12.15;4.65;;;;;;;17.38;100.00;100727.53;5033456;28;20034;-78
2023/07/14 04:59:21;;;;;;;9.77;4.53;;;;;;;17.51;100.00;100724.09;5032366;28;20032;-79
2023/07/14 05:01:49;;;;;;;23.00;5.10;;;;;;;17.58;100.00;100724.31;5032960;28;20049;-80
2023/07/14 05:04:15;;;;;;;16.40;5.13;;;;;;;17.58;100.00;100718.53;5033205;28;20550;-79
2023/07/14 05:06:40;;;;;;;12.70;5.10;;;;;;;17.54;100.00;100714.34;5048446;28;20025;-79
2023/07/14 05:09:07;;;;;;;12.68;4.50;;;;;;;17.66;100.00;100716.66;5041206;28;20128;-80
2023/07/14 05:11:33;;;;;;;12.27;4.68;;;;;;;17.73;100.00;100721.88;5053175;28;20049;-80
2023/07/14 05:14:00;;;;;;;16.65;4.47;;;;;;;17.87;100.00;100716.28;5052885;28;20036;-81
2023/07/14 05:16:26;;;;;;;12.63;4.55;;;;;;;18.09;100.00;100722.72;5052696;28;20025;-80
2023/07/14 05:18:53;;;;;;;18.95;4.60;;;;;;;18.26;100.00;100725.50;5018653;28;20037;-80
2023/07/14 05:21:21;;;;;;;17.65;5.90;;;;;;;18.40;100.00;100727.28;5034860;28;20402;-80
2023/07/14 05:23:46;;;;;;;14.07;5.30;;;;;;;18.52;100.00;100725.84;5055812;28;20068;-79
2023/07/14 05:26:20;;;;;;;11.93;5.47;;;;;;;18.72;100.00;100721.75;5056169;28;20045;-79
2023/07/14 05:28:45;;;;;;;9.40;4.65;;;;;;;18.90;100.00;100717.38;5039190;28;20032;-79
2023/07/14 05:31:12;;;;;;;14.52;5.07;;;;;;;18.97;100.00;100711.75;5038878;28;20029;-77
2023/07/14 05:33:38;;;;;;;13.52;5.43;;;;;;;19.02;100.00;100710.13;5038579;28;20037;-77
2023/07/14 05:36:05;;;;;;;8.85;5.00;;;;;;;19.12;100.00;100717.91;5055356;28;20463;-77
2023/07/14 05:38:31;;;;;;;16.67;5.43;;;;;;;19.19;100.00;100713.66;5039120;28;20367;-77
2023/07/14 05:40:58;;;;;;;15.02;4.68;;;;;;;19.30;100.00;100724.34;5038637;28;20036;-78
2023/07/14 05:43:25;;;;;;;7.15;4.40;;;;;;;19.40;100.00;100726.34;5056655;28;20104;-75
2023/07/14 05:45:51;;;;;;;13.30;4.68;;;;;;;19.53;100.00;100725.66;5038825;28;20033;-80
2023/07/14 05:48:18;;;;;;;15.35;4.60;;;;;;;19.74;100.00;100728.81;5055021;28;20035;-79
2023/07/14 05:50:45;;;;;;;14.20;4.07;;;;;;;20.01;100.00;100726.88;5055727;28;20048;-81
2023/07/14 05:53:12;;;;;;;15.38;3.67;;;;;;;20.30;100.00;100725.94;5022274;28;20029;-80
2023/07/14 05:55:39;;;;;;;24.52;5.45;;;;;;;20.66;100.00;100733.00;5056178;28;20113;-79
2023/07/14 05:58:07;;;;;;;7.47;3.63;;;;;;;21.14;100.00;100728.97;5037806;28;20060;-80
2023/07/14 06:00:38;;;;;;;8.98;3.72;;;;;;;21.52;100.00;100737.53;5053108;28;20045;-81
2023/07/14 06:03:06;;;;;;;9.15;3.60;;;;;;;21.92;100.00;100744.09;5038745;28;20466;-78
2023/07/14 06:05:32;;;;;;;9.32;3.40;;;;;;;22.19;100.00;100739.78;5037783;28;20044;-78
2023/07/14 06:08:06;;;;;;;9.18;3.20;;;;;;;22.39;100.00;100741.97;5021404;28;20025;-77
2023/07/14 06:10:34;;;;;;;9.73;3.42;;;;;;;22.59;100.00;100745.47;5037636;28;20490;-78
2023/07/14 06:13:01;;;;;;;11.15;3.00;;;;;;;22.76;100.00;100734.97;5037668;28;20025;-80
2023/07/14 06:15:28;;;;;;;6.93;3.03;;;;;;;22.87;100.00;100728.88;5037905;28;20029;-77
2023/07/14 06:17:53;;;;;;;9.73;3.28;;;;;;;22.96;100.00;100735.56;5054324;28;20378;-79
2023/07/14 06:20:20;;;;;;;9.65;3.22;;;;;;;23.30;100.00;100730.38;5037098;28;20044;-77
2023/07/14 06:22:48;;;;;;;7.45;2.80;;;;;;;23.84;100.00;100729.38;5055792;28;20044;-79
2023/07/14 06:25:15;;;;;;;5.72;2.65;;;;;;;24.50;100.00;100738.16;5055556;28;20017;-76
2023/07/14 06:27:44;;;;;;;6.75;2.88;;;;;;;25.19;100.00;100733.19;5051640;28;20033;-74
2023/07/14 06:30:13;;;;;;;9.23;2.65;;;;;;;25.66;99.90;100735.47;5055372;28;20470;-77
2023/07/14 06:32:39;;;;;;;5.63;2.40;;;;;;;25.66;93.86;100728.84;5055378;28;20052;-77
2023/07/14 06:35:08;;;;;;;6.38;2.55;;;;;;;25.80;96.17;100738.94;5054495;28;20530;-76
2023/07/14 06:37:34;;;;;;;6.10;2.80;;;;;;;25.88;97.52;100736.75;5055190;28;20120;-77
2023/07/14 06:40:02;;;;;;;15.00;3.13;;;;;;;25.77;94.66;100746.78;5055207;28;20036;-78
2023/07/14 06:42:27;;;;;;;13.07;3.15;;;;;;;25.59;96.82;100741.34;5055495;28;20029;-75
2023/07/14 06:44:52;;;;;;;9.70;3.00;;;;;;;25.55;97.79;100738.03;5037260;28;20027;-78
2023/07/14 06:47:22;;;;;;;5.55;2.42;;;;;;;25.55;96.62;100741.75;5033572;28;20883;-78
2023/07/14 06:49:49;;;;;;;7.38;3.00;;;;;;;25.60;97.83;100731.97;5049991;28;20036;-77
2023/07/14 06:52:16;;;;;;;11.27;3.80;;;;;;;25.64;97.67;100740.34;5033723;28;20036;-79
2023/07/14 06:54:41;;;;;;;6.85;2.55;;;;;;;25.48;93.38;100740.34;5034933;28;20076;-78
2023/07/14 06:57:08;;;;;;;5.32;2.70;;;;;;;25.00;94.22;100741.56;5034837;28;20033;-79
2023/07/14 06:59:33;;;;;;;9.30;4.22;;;;;;;24.63;97.39;100743.88;5033884;28;20030;-78
2023/07/14 07:02:01;;;;;;;5.93;2.65;;;;;;;24.39;100.00;100738.56;5017172;28;20524;-78
2023/07/14 07:04:28;;;;;;;5.20;2.38;;;;;;;24.52;100.00;100738.38;5035018;28;20014;-80
2023/07/14 07:06:57;;;;;;;12.65;3.20;;;;;;;25.03;100.00;100749.19;5016904;28;20029;-79
2023/07/14 07:09:22;;;;;;;7.93;2.78;;;;;;;25.42;96.35;100759.50;5013652;28;20103;-88
2023/07/14 07:11:48;;;;;;;15.27;3.30;;;;;;;25.60;91.12;100752.47;5030495;28;20022;-76
2023/07/14 07:14:14;;;;;;;13.27;2.90;;;;;;;25.55;90.54;100750.53;5014665;28;20485;-77
2023/07/14 07:16:39;;;;;;;12.43;3.17;;;;;;;25.38;89.33;100745.25;5014612;28;20041;-79
2023/07/14 07:19:07;;;;;;;14.85;3.13;;;;;;;25.06;87.21;100751.72;5014506;28;20088;-77
2023/07/14 07:21:35;;;;;;;7.20;3.30;;;;;;;24.63;83.68;100764.31;5013090;28;20081;-81
2023/07/14 07:24:05;;;;;;;8.10;2.88;;;;;;;24.27;86.95;100757.78;5014625;28;20161;-80
2023/07/14 07:26:33;;;;;;;20.10;4.43;;;;;;;24.03;88.44;100753.19;5014705;28;20464;-79
2023/07/14 07:29:00;;;;;;;8.15;2.67;;;;;;;23.88;92.63;100747.28;5015269;28;20041;-79
2023/07/14 07:31:28;;;;;;;6.45;2.25;;;;;;;23.78;96.01;100740.41;5016377;28;20033;-79
2023/07/14 07:33:55;;;;;;;5.30;2.95;;;;;;;23.72;98.66;100740.59;5013681;28;20535;-79
2023/07/14 07:36:30;;;;;;;7.35;2.40;;;;;;;23.70;97.57;100742.53;5013434;28;20050;-78
2023/07/14 07:38:56;;;;;;;7.47;2.28;;;;;;;23.71;98.90;100730.25;5014429;28;20539;-77
2023/07/14 07:41:25;;;;;;;5.30;2.58;;;;;;;23.79;100.00;100734.03;5013094;28;20064;-78
2023/07/14 07:43:52;;;;;;;5.80;2.50;;;;;;;24.01;97.83;100740.50;5012962;28;20037;-79
2023/07/14 07:46:21;;;;;;;2.90;2.00;;;;;;;24.11;95.81;100736.47;5013299;28;20084;-80
2023/07/14 07:48:48;;;;;;;3.00;1.90;;;;;;;24.26;98.96;100729.16;5012978;28;20052;-78
2023/07/14 07:51:14;;;;;;;3.42;2.58;;;;;;;24.44;97.79;100731.75;4996465;28;20100;-76
2023/07/14 07:53:40;;;;;;;8.38;2.70;;;;;;;24.79;99.39;100724.19;5013986;28;20038;-78
2023/07/14 07:56:06;;;;;;;7.43;2.45;;;;;;;25.24;94.30;100729.28;5012651;28;20030;-77
2023/07/14 07:58:33;;;;;;;2.65;2.10;;;;;;;25.82;94.19;100728.22;5012810;28;20030;-80
2023/07/14 08:01:01;;;;;;;5.55;2.40;;;;;;;26.74;87.77;100725.59;4997029;28;20026;-80
2023/07/14 08:03:29;;;;;;;8.15;2.20;;;;;;;27.86;82.64;100727.28;5013869;28;20025;-78
2023/07/14 08:06:06;;;;;;;2.92;2.17;;;;;;;28.89;73.17;100742.53;4994221;28;20145;-79
2023/07/14 08:08:34;;;;;;;4.13;2.55;;;;;;;29.55;71.70;100743.38;5015932;28;20502;-79
2023/07/14 08:11:01;;;;;;;6.65;2.40;;;;;;;29.63;60.29;100749.91;5033995;28;20029;-80
2023/07/14 08:13:31;;;;;;;14.13;2.85;;;;;;;29.45;55.97;100742.59;5035557;28;20462;-76
2023/07/14 08:15:58;;;;;;;7.20;2.33;;;;;;;29.17;61.55;100749.19;5035361;28;20470;-82
2023/07/14 08:18:26;;;;;;;4.97;2.15;;;;;;;28.74;57.94;100759.63;5035757;28;20375;-79
2023/07/14 08:20:52;;;;;;;6.32;2.40;;;;;;;28.17;59.42;100752.00;5031193;28;20057;-79
2023/07/14 08:23:20;;;;;;;14.18;3.70;;;;;;;27.69;63.71;100754.50;5052071;28;20540;-79
2023/07/14 08:26:01;;;;;;;8.77;3.17;;;;;;;27.25;66.66;100736.72;5032161;28;20033;-80
2023/07/14 08:28:27;;;;;;;6.60;1.90;;;;;;;27.10;70.14;100755.25;5051790;28;20474;-78
2023/07/14 08:30:57;;;;;;;6.93;1.90;;;;;;;26.82;73.65;100740.97;5032301;28;20060;-77
2023/07/14 08:33:25;;;;;;;6.32;2.42;;;;;;;26.45;72.93;100739.84;5001159;28;20475;-79
2023/07/14 08:36:00;;;;;;;6.63;2.80;;;;;;;26.21;77.00;100737.63;5032476;28;20087;-81
2023/07/14 08:38:27;;;;;;;3.50;1.98;;;;;;;25.93;73.14;100748.25;5017575;28;20083;-82
2023/07/14 08:40:57;;;;;;;4.07;2.25;;;;;;;25.74;76.35;100741.28;5053790;28;20028;-82
2023/07/14 08:43:36;;;;;;;4.28;2.13;;;;;;;25.48;77.08;100742.53;5035259;28;20028;-82
2023/07/14 08:46:09;;;;;;;10.07;2.40;;;;;;;25.19;76.59;100736.09;5054864;28;20025;-85
2023/07/14 08:48:44;;;;;;;12.73;2.67;;;;;;;24.95;79.24;100728.69;5019973;28;20466;-82
2023/07/14 08:51:19;;;;;;;9.13;2.55;;;;;;;24.80;81.75;100737.44;5031881;28;20100;-79
2023/07/14 08:53:55;;;;;;;7.25;2.70;;;;;;;24.88;86.79;100723.66;5032077;28;20026;-82
2023/07/14 08:56:20;;;;;;;6.32;2.08;;;;;;;25.43;90.19;100723.78;5017173;28;20018;-80
2023/07/14 08:59:23;;;;;;;9.63;2.20;;;;;;;26.24;81.90;100725.50;5016876;28;20084;-80
2023/07/14 09:01:53;;;;;;;6.18;2.35;;;;;;;26.94;75.90;100739.13;5035308;28;20025;-80
2023/07/14 09:04:26;;;;;;;13.98;2.80;;;;;;;27.52;72.28;100728.84;5017153;28;20026;-80
2023/07/14 09:06:53;;;;;;;4.72;2.00;;;;;;;28.34;73.95;100733.56;5033225;28;20051;-80
2023/07/14 09:09:29;;;;;;;5.47;2.00;;;;;;;29.18;59.19;100736.03;5036510;28;20053;-82
2023/07/14 09:12:36;;;;;;;8.00;1.95;;;;;;;30.05;54.10;100740.63;5052918;28;20052;-80
2023/07/14 09:15:25;;;;;;;4.50;1.90;;;;;;;30.83;45.70;100733.19;5054213;28;20044;-81
2023/07/14 09:18:17;;;;;;;2.92;1.90;;;;;;;31.43;47.75;100727.16;5038229;28;20029;-80
2023/07/14 09:21:27;;;;;;;6.72;1.70;;;;;;;32.09;47.03;100733.97;5055510;28;20385;-81
2023/07/14 09:24:24;;;;;;;7.60;1.95;;;;;;;32.43;44.58;100732.59;5055353;28;20033;-80
2023/07/14 09:26:56;;;;;;;2.80;1.67;;;;;;;32.67;42.19;100730.44;5055322;28;20100;-80
2023/07/14 09:29:44;;;;;;;11.73;2.65;;;;;;;32.84;40.44;100729.31;5037329;28;20024;-80
2023/07/14 09:32:37;;;;;;;5.82;2.30;;;;;;;33.03;43.34;100732.78;5055141;28;20039;-80
2023/07/14 09:35:09;;;;;;;4.53;1.80;;;;;;;33.26;39.46;100723.16;5036971;28;20033;-80
2023/07/14 09:37:59;;;;;;;9.98;2.28;;;;;;;33.33;35.96;100724.28;5056170;28;20028;-80
2023/07/14 09:40:32;;;;;;;6.93;2.08;;;;;;;33.15;36.49;100720.19;5056392;28;20025;-80
2023/07/14 09:43:01;;;;;;;4.70;2.25;;;;;;;32.96;36.32;100722.00;5055034;28;20504;-81
2023/07/14 09:45:36;;;;;;;4.30;2.42;;;;;;;32.92;38.95;100721.75;5054873;28;20409;-81
2023/07/14 09:48:26;;;;;;;8.30;2.55;;;;;;;32.89;38.09;100720.03;5054865;28;20048;-81
2023/07/14 09:51:09;;;;;;;3.33;1.65;;;;;;;32.81;37.94;100712.84;5055563;28;20028;-81
2023/07/14 09:53:38;;;;;;;7.65;2.38;;;;;;;32.36;36.36;100706.16;5037547;28;20036;-81
2023/07/14 09:56:11;;;;;;;6.22;2.33;;;;;;;31.78;38.54;100697.84;5056193;28;20025;-81
2023/07/14 09:58:37;;;;;;;4.68;1.90;;;;;;;31.36;39.18;100687.53;5037971;28;20424;-81
2023/07/14 10:01:13;;;;;;;5.20;1.55;;;;;;;31.24;38.95;100704.44;5054990;28;20041;-80
2023/07/14 10:03:47;;;;;;;3.08;2.00;;;;;;;31.02;37.17;100691.00;5055958;28;20099;-80
2023/07/14 10:06:22;;;;;;;2.97;1.83;;;;;;;30.57;37.20;100684.03;5056064;28;20047;-80
2023/07/14 10:09:12;;;;;;;5.28;2.20;;;;;;;30.03;37.83;100693.28;5053925;28;20394;-80
2023/07/14 10:11:45;;;;;;;3.83;2.20;;;;;;;29.44;38.52;100682.13;5056043;28;20036;-81
2023/07/14 10:14:27;;;;;;;4.07;1.75;;;;;;;29.39;47.42;100679.47;5054902;28;20053;-81
2023/07/14 10:16:57;;;;;;;6.10;2.03;;;;;;;29.23;47.87;100679.75;5037608;28;20500;-81
2023/07/14 10:19:37;;;;;;;6.70;3.65;;;;;;;29.14;43.38;100662.84;5038065;28;20040;-80
2023/07/14 10:22:06;;;;;;;5.45;2.08;;;;;;;29.11;43.37;100666.25;5037648;28;20044;-80
2023/07/14 10:24:35;;;;;;;4.10;1.70;;;;;;;28.81;42.87;100664.59;5037782;28;20539;-80
2023/07/14 10:27:13;;;;;;;4.20;2.10;;;;;;;28.80;47.48;100666.75;5055489;28;20084;-81
2023/07/14 10:29:49;;;;;;;3.58;1.73;;;;;;;28.81;49.95;100652.84;5038444;28;20029;-81
2023/07/14 10:32:28;;;;;;;2.25;1.40;;;;;;;28.91;49.79;100646.97;5055126;28;20036;-81
2023/07/14 10:35:17;;;;;;;3.78;1.75;;;;;;;28.97;49.58;100648.22;5054255;28;20025;-80
2023/07/14 10:38:02;;;;;;;4.82;1.67;;;;;;;29.07;44.89;100636.50;5055166;28;20489;-80
2023/07/14 10:40:41;;;;;;;5.15;2.00;;;;;;;28.80;43.77;100642.44;5055871;28;20104;-80
2023/07/14 10:43:19;;;;;;;7.13;1.92;;;;;;;28.61;49.88;100633.56;5037716;28;20037;-80
2023/07/14 10:45:49;;;;;;;4.45;1.67;;;;;;;28.53;48.51;100633.69;5055341;28;20025;-79
2023/07/14 10:48:26;;;;;;;2.92;1.80;;;;;;;28.31;44.80;100632.63;5053998;28;20492;-80
2023/07/14 10:51:13;;;;;;;6.18;2.10;;;;;;;28.10;42.49;100629.41;5053407;28;20021;-80
2023/07/14 10:53:45;;;;;;;3.67;1.80;;;;;;;27.80;45.57;100626.91;5054935;28;20017;-79
2023/07/14 10:56:34;;;;;;;3.35;1.75;;;;;;;27.65;46.81;100615.34;5054727;28;20040;-81
2023/07/14 10:59:08;;;;;;;5.65;2.30;;;;;;;27.48;48.14;100624.94;5053313;28;20033;-80
2023/07/14 11:01:36;;;;;;;8.05;2.28;;;;;;;27.15;47.99;100612.59;5036856;28;20157;-79
2023/07/14 11:04:14;;;;;;;2.65;1.88;;;;;;;26.82;49.53;100605.28;5054736;28;20052;-80
2023/07/14 11:06:44;;;;;;;3.30;1.85;;;;;;;26.48;49.87;100612.59;5054555;28;20056;-79
2023/07/14 11:09:12;;;;;;;4.75;1.88;;;;;;;26.32;52.64;100605.28;5054382;28;20074;-81
2023/07/14 11:12:09;;;;;;;2.67;1.90;;;;;;;26.12;53.31;100601.31;5036521;28;20069;-83
2023/07/14 11:14:53;;;;;;;7.40;2.53;;;;;;;25.87;56.30;100601.28;5054670;28;20079;-81
2023/07/14 11:17:25;;;;;;;5.88;1.98;;;;;;;25.68;55.71;100597.28;5057746;28;20029;-79
2023/07/14 11:19:59;;;;;;;8.38;2.55;;;;;;;25.60;62.42;100584.81;5074301;28;20028;-80
2023/07/14 11:22:59;;;;;;;2.92;1.70;;;;;;;25.57;61.25;100575.09;5073862;28;20032;-79
2023/07/14 11:25:47;;;;;;;5.80;2.47;;;;;;;25.49;57.92;100568.47;5074069;28;20538;-80
2023/07/14 11:28:40;;;;;;;9.60;2.72;;;;;;;25.50;59.23;100572.97;5074186;28;20028;-76
2023/07/14 11:31:20;;;;;;;5.65;2.30;;;;;;;25.53;61.73;100571.00;5074534;28;20060;-79
2023/07/14 11:34:28;;;;;;;4.95;2.20;;;;;;;25.54;61.42;100563.75;5056549;28;20094;-77
2023/07/14 11:37:28;;;;;;;4.32;1.85;;;;;;;25.54;64.83;100557.91;5066104;28;20041;-78